createdAt,value
2022-08-18T00:01:06.149Z,46.30
2022-08-18T00:03:56.329Z,47.00
2022-08-18T00:06:20.141Z,47.22
2022-08-18T00:08:47.221Z,45.47
2022-08-18T00:11:14.812Z,47.65
2022-08-18T00:13:41.682Z,48.45
2022-08-18T00:16:08.724Z,45.38
2022-08-18T00:18:35.764Z,46.28
2022-08-18T00:21:02.861Z,48.03
2022-08-18T00:23:32.560Z,49.05
2022-08-18T00:26:00.174Z,50.67
2022-08-18T00:28:27.218Z,54.03
2022-08-18T00:30:54.523Z,49.47
2022-08-18T00:33:21.843Z,50.00
2022-08-18T00:35:49.433Z,48.65
2022-08-18T00:38:24.481Z,47.05
2022-08-18T00:40:54.408Z,48.80
2022-08-18T00:43:46.966Z,48.58
2022-08-18T00:46:20.587Z,50.53
2022-08-18T00:48:49.390Z,49.00
2022-08-18T00:51:24.316Z,48.85
2022-08-18T00:54:05.137Z,51.08
2022-08-18T00:56:38.852Z,50.10
2022-08-18T00:59:17.046Z,51.38
2022-08-18T01:01:45.938Z,48.53
2022-08-18T01:04:26.464Z,51.20
2022-08-18T01:06:58.804Z,55.25
2022-08-18T01:09:26.899Z,55.47
2022-08-18T01:11:54.087Z,58.38
2022-08-18T01:14:21.146Z,60.13
2022-08-18T01:17:08.241Z,59.20
2022-08-18T01:19:54.852Z,60.20
2022-08-18T01:22:35.666Z,59.65
2022-08-18T01:25:21.481Z,57.58
2022-08-18T01:27:57.062Z,57.90
2022-08-18T01:30:28.025Z,56.35
2022-08-18T01:32:56.941Z,51.78
2022-08-18T01:35:26.081Z,60.00
2022-08-18T01:37:54.256Z,59.17
2022-08-18T01:41:23.421Z,60.15
2022-08-18T01:43:11.572Z,59.15
2022-08-18T01:45:39.554Z,51.03
2022-08-18T01:48:07.218Z,56.67
2022-08-18T01:50:35.189Z,52.50
2022-08-18T01:53:05.569Z,55.55
2022-08-18T01:55:38.345Z,53.70
2022-08-18T01:58:07.873Z,58.50
2022-08-18T02:03:08.624Z,47.47
2022-08-18T02:05:41.278Z,55.85
2022-08-18T02:08:12.342Z,55.38
2022-08-18T02:10:40.082Z,57.00
2022-08-18T02:13:06.960Z,58.67
2022-08-18T02:15:34.025Z,60.38
2022-08-18T02:18:01.819Z,62.63
2022-08-18T02:20:29.153Z,61.90
2022-08-18T02:22:55.905Z,63.97
2022-08-18T02:25:23.251Z,63.75
2022-08-18T02:27:51.090Z,66.05
2022-08-18T02:30:19.903Z,64.30
2022-08-18T02:32:47.066Z,65.60
2022-08-18T02:35:14.023Z,66.00
2022-08-18T02:37:47.725Z,65.57
2022-08-18T02:40:16.321Z,71.07
2022-08-18T02:42:46.145Z,69.10
2022-08-18T02:45:13.993Z,65.75
2022-08-18T02:47:49.106Z,69.07
2022-08-18T02:50:17.253Z,66.25
2022-08-18T02:52:44.353Z,67.13
2022-08-18T02:55:12.315Z,62.38
2022-08-18T02:57:44.187Z,59.58
2022-08-18T03:00:14.320Z,60.08
2022-08-18T03:02:45.018Z,54.63
2022-08-18T03:05:14.794Z,53.30
2022-08-18T03:07:41.898Z,57.35
2022-08-18T03:10:32.892Z,60.60
2022-08-18T03:12:57.185Z,60.35
2022-08-18T03:15:24.121Z,62.80
2022-08-18T03:17:53.769Z,62.67
2022-08-18T03:20:31.157Z,61.53
2022-08-18T03:22:58.811Z,58.38
2022-08-18T03:25:25.861Z,59.55
2022-08-18T03:27:53.003Z,59.63
2022-08-18T03:30:19.880Z,56.05
2022-08-18T03:32:47.442Z,57.05
2022-08-18T03:35:14.727Z,57.08
2022-08-18T03:37:43.157Z,59.08
2022-08-18T03:40:11.029Z,58.78
2022-08-18T03:42:38.396Z,59.35
2022-08-18T03:45:13.281Z,60.97
2022-08-18T03:50:14.113Z,57.17
2022-08-18T03:52:41.866Z,62.92
2022-08-18T03:55:09.285Z,62.30
2022-08-18T03:57:39.366Z,62.53
2022-08-18T04:00:06.832Z,64.35
2022-08-18T04:02:33.680Z,66.75
2022-08-18T04:05:00.760Z,66.03
2022-08-18T04:07:27.833Z,68.05
2022-08-18T04:09:54.840Z,65.93
2022-08-18T04:12:21.897Z,74.22
2022-08-18T04:14:50.425Z,70.32
2022-08-18T04:17:24.881Z,72.85
2022-08-18T04:19:53.903Z,71.22
2022-08-18T04:22:21.002Z,70.20
2022-08-18T04:24:49.781Z,67.05
2022-08-18T04:27:17.453Z,69.30
2022-08-18T04:29:44.142Z,72.38
2022-08-18T04:32:10.986Z,71.47
2022-08-18T04:34:38.074Z,69.32
2022-08-18T04:37:05.150Z,69.55
2022-08-18T04:39:32.236Z,66.10
2022-08-18T04:41:59.379Z,65.32
2022-08-18T04:44:26.606Z,60.63
2022-08-18T04:46:54.462Z,65.55
2022-08-18T04:49:25.838Z,68.07
2022-08-18T04:52:27.062Z,63.47
2022-08-18T04:55:00.990Z,64.70
2022-08-18T04:57:29.013Z,66.87
2022-08-18T05:00:00.015Z,65.00
2022-08-18T05:02:26.824Z,64.05
2022-08-18T05:04:53.793Z,63.72
2022-08-18T05:07:22.974Z,62.83
2022-08-18T05:09:50.757Z,63.47
2022-08-18T05:12:17.873Z,62.28
2022-08-18T05:14:47.643Z,62.35
2022-08-18T05:17:15.977Z,63.38
2022-08-18T05:19:46.517Z,60.95
2022-08-18T05:22:18.421Z,59.80
2022-08-18T05:24:45.953Z,60.88
2022-08-18T05:27:13.500Z,62.35
2022-08-18T05:29:45.864Z,64.07
2022-08-18T05:32:46.614Z,65.18
2022-08-18T05:35:14.166Z,65.47
2022-08-18T05:40:20.604Z,64.45
2022-08-18T05:42:48.714Z,64.85
2022-08-18T05:45:18.582Z,66.75
2022-08-18T05:47:45.519Z,60.85
2022-08-18T05:50:19.175Z,62.08
2022-08-18T05:52:52.249Z,62.88
2022-08-18T05:55:47.903Z,61.85
2022-08-18T05:58:21.311Z,59.55
2022-08-18T06:03:27.050Z,60.05
2022-08-18T06:06:02.497Z,60.88
2022-08-18T06:08:46.968Z,64.03
2022-08-18T06:11:22.228Z,63.50
2022-08-18T06:13:50.537Z,63.97
2022-08-18T06:16:36.153Z,56.05
2022-08-18T06:19:24.700Z,58.80
2022-08-18T06:22:08.129Z,57.55
2022-08-18T06:24:46.657Z,54.63
2022-08-18T06:27:39.585Z,60.50
2022-08-18T06:30:07.906Z,57.78
2022-08-18T06:33:29.631Z,56.85
2022-08-18T06:36:37.666Z,57.42
2022-08-18T06:39:50.894Z,49.67
2022-08-18T06:42:30.758Z,52.05
2022-08-18T06:45:11.413Z,53.75
2022-08-18T06:47:59.527Z,58.05
2022-08-18T06:50:34.044Z,52.17
2022-08-18T06:53:07.027Z,53.42
2022-08-18T06:55:55.191Z,57.95
2022-08-18T06:58:30.287Z,55.00
2022-08-18T07:01:02.821Z,56.00
2022-08-18T07:03:51.334Z,53.35
2022-08-18T07:06:31.253Z,55.00
2022-08-18T07:09:29.529Z,52.17
2022-08-18T07:12:07.083Z,47.22
2022-08-18T07:14:50.455Z,48.67
2022-08-18T07:17:52.815Z,47.90
2022-08-18T07:20:26.037Z,46.85
2022-08-18T07:23:08.111Z,41.85
2022-08-18T07:25:47.765Z,45.45
2022-08-18T07:28:37.416Z,45.28
2022-08-18T07:31:24.916Z,47.90
2022-08-18T07:34:01.410Z,46.30
2022-08-18T07:36:35.445Z,41.30
2022-08-18T07:39:14.390Z,40.13
2022-08-18T07:42:02.549Z,38.55
2022-08-18T07:44:53.365Z,40.00
2022-08-18T07:47:29.373Z,36.60
2022-08-18T07:50:18.251Z,38.28
2022-08-18T07:53:11.013Z,37.53
2022-08-18T07:55:48.158Z,40.50
2022-08-18T07:58:54.284Z,41.00
2022-08-18T08:01:33.817Z,37.13
2022-08-18T08:04:25.759Z,37.63
2022-08-18T08:07:37.516Z,37.92
2022-08-18T08:10:26.030Z,38.90
2022-08-18T08:13:13.157Z,36.20
2022-08-18T08:15:54.550Z,35.90
2022-08-18T08:18:49.762Z,33.95
2022-08-18T08:21:22.364Z,33.97
2022-08-18T08:24:20.966Z,32.30
2022-08-18T08:27:04.803Z,32.20
2022-08-18T08:29:56.843Z,33.50
2022-08-18T08:32:50.997Z,33.38
2022-08-18T08:35:50.995Z,35.28
2022-08-18T08:38:44.469Z,34.92
2022-08-18T08:41:47.671Z,34.53
2022-08-18T08:44:58.070Z,32.35
2022-08-18T08:47:35.523Z,32.00
2022-08-18T08:50:13.461Z,30.92
2022-08-18T08:52:49.593Z,28.88
2022-08-18T08:55:48.502Z,28.25
2022-08-18T08:58:21.418Z,26.38
2022-08-18T09:00:52.872Z,25.63
2022-08-18T09:03:31.826Z,24.90
2022-08-18T09:06:30.264Z,25.83
2022-08-18T09:09:05.785Z,24.95
2022-08-18T09:11:41.993Z,22.02
2022-08-18T09:14:33.068Z,21.65
2022-08-18T09:17:19.801Z,21.05
2022-08-18T09:20:30.441Z,21.98
2022-08-18T09:23:18.159Z,20.75
2022-08-18T09:25:49.720Z,20.95
2022-08-18T09:28:29.014Z,18.42
2022-08-18T09:31:02.466Z,17.33
2022-08-18T09:33:56.578Z,18.48
2022-08-18T09:36:59.107Z,16.55
2022-08-18T09:40:12.781Z,21.15
2022-08-18T09:46:12.517Z,16.27
2022-08-18T09:48:43.183Z,17.00
2022-08-18T09:51:15.670Z,14.68
2022-08-18T09:53:53.996Z,14.88
2022-08-18T09:56:55.798Z,14.55
2022-08-18T09:59:38.222Z,13.30
2022-08-18T10:02:32.557Z,13.63
2022-08-18T10:05:19.061Z,16.77
2022-08-18T10:07:50.124Z,15.93
2022-08-18T10:10:59.802Z,14.90
2022-08-18T10:13:31.604Z,16.90
2022-08-18T10:16:28.258Z,19.08
2022-08-18T10:19:39.897Z,18.70
2022-08-18T10:22:09.576Z,18.05
2022-08-18T10:24:54.878Z,15.23
2022-08-18T10:27:34.588Z,20.67
2022-08-18T10:30:05.473Z,17.00
2022-08-18T10:32:54.591Z,20.48
2022-08-18T10:35:34.203Z,24.40
2022-08-18T10:41:21.684Z,20.23
2022-08-18T10:43:55.707Z,19.90
2022-08-18T10:46:31.906Z,21.00
2022-08-18T10:49:13.232Z,23.33
2022-08-18T10:52:00.671Z,23.45
2022-08-18T10:54:56.198Z,23.10
2022-08-18T10:57:45.212Z,23.38
2022-08-18T11:03:52.274Z,23.27
2022-08-18T11:09:00.089Z,18.45
2022-08-18T11:11:52.689Z,16.92
2022-08-18T11:14:43.010Z,15.82
2022-08-18T11:17:32.613Z,13.95
2022-08-18T11:20:01.710Z,11.20
2022-08-18T11:22:34.146Z,11.30
2022-08-18T11:25:18.653Z,10.32
2022-08-18T11:27:48.690Z,13.85
2022-08-18T11:30:17.722Z,18.77
2022-08-18T11:32:52.272Z,14.68
2022-08-18T11:35:27.660Z,13.18
2022-08-18T11:38:01.018Z,15.00
2022-08-18T11:41:10.565Z,14.50
2022-08-18T11:43:41.045Z,15.50
2022-08-18T11:46:42.980Z,26.33
2022-08-18T11:52:26.384Z,16.45
2022-08-18T11:55:27.805Z,15.02
2022-08-18T11:57:59.510Z,16.85
2022-08-18T12:00:36.303Z,21.05
2022-08-18T12:03:43.893Z,16.70
2022-08-18T12:06:30.498Z,15.27
2022-08-18T12:09:02.481Z,15.73
2022-08-18T12:11:48.715Z,15.23
2022-08-18T12:14:30.466Z,14.80
2022-08-18T12:17:01.799Z,15.38
2022-08-18T12:19:31.093Z,17.90
2022-08-18T12:22:03.911Z,16.90
2022-08-18T12:24:40.198Z,16.50
2022-08-18T12:27:21.501Z,15.80
2022-08-18T12:29:50.839Z,14.40
2022-08-18T12:38:00.187Z,11.35
2022-08-18T12:40:33.412Z,10.75
2022-08-18T12:43:00.501Z,9.68
2022-08-18T12:45:28.992Z,10.03
2022-08-18T12:47:56.690Z,10.07
2022-08-18T12:50:31.186Z,9.30
2022-08-18T12:53:00.775Z,9.88
2022-08-18T12:55:31.507Z,9.82
2022-08-18T12:58:33.131Z,9.43
2022-08-18T13:04:12.859Z,9.32
2022-08-18T13:06:59.494Z,13.40
2022-08-18T13:09:35.253Z,15.07
2022-08-18T13:12:18.430Z,13.23
2022-08-18T13:14:47.286Z,13.77
2022-08-18T13:17:30.271Z,13.20
2022-08-18T13:20:15.695Z,14.32
2022-08-18T13:22:43.005Z,11.95
2022-08-18T13:25:28.711Z,12.48
2022-08-18T13:28:01.797Z,11.70
2022-08-18T13:30:31.293Z,10.27
2022-08-18T13:33:05.808Z,8.65
2022-08-18T13:35:52.445Z,10.43
2022-08-18T13:38:26.071Z,9.25
2022-08-18T13:40:57.981Z,8.55
2022-08-18T13:43:42.023Z,8.38
2022-08-18T13:46:14.148Z,8.27
2022-08-18T13:48:43.060Z,7.90
2022-08-18T13:51:16.780Z,8.23
2022-08-18T13:53:57.784Z,8.50
2022-08-18T13:56:31.816Z,8.85
2022-08-18T13:58:59.155Z,8.55
2022-08-18T14:01:44.280Z,10.18
2022-08-18T14:04:20.472Z,10.07
2022-08-18T14:06:56.485Z,11.23
2022-08-18T14:09:36.736Z,9.80
2022-08-18T14:12:32.635Z,8.85
2022-08-18T14:15:00.246Z,9.63
2022-08-18T14:17:28.145Z,8.20
2022-08-18T14:20:21.125Z,8.50
2022-08-18T14:23:09.381Z,9.40
2022-08-18T14:25:54.877Z,9.25
2022-08-18T14:28:24.649Z,7.35
2022-08-18T14:30:54.564Z,8.35
2022-08-18T14:33:34.588Z,7.20
2022-08-18T14:36:12.869Z,7.18
2022-08-18T14:38:40.430Z,7.10
2022-08-18T14:41:13.829Z,6.75
2022-08-18T14:44:11.258Z,7.03
2022-08-18T14:46:32.616Z,7.35
2022-08-18T14:49:03.725Z,6.35
2022-08-18T14:51:33.674Z,6.75
2022-08-18T14:54:01.566Z,7.30
2022-08-18T14:56:29.494Z,7.75
2022-08-18T14:59:00.124Z,7.45
2022-08-18T15:01:27.688Z,7.10
2022-08-18T15:07:05.721Z,6.65
2022-08-18T15:09:40.337Z,9.73
2022-08-18T15:12:08.874Z,6.38
2022-08-18T15:17:52.593Z,5.75
2022-08-18T15:20:28.690Z,6.65
2022-08-18T15:26:09.832Z,6.60
2022-08-18T15:31:49.640Z,8.18
2022-08-18T16:01:30.002Z,8.07
2022-08-18T16:03:57.214Z,7.20
2022-08-18T16:06:27.485Z,7.10
2022-08-18T16:11:44.914Z,8.00
2022-08-18T16:25:03.083Z,8.23
2022-08-18T16:27:30.968Z,7.30
2022-08-18T16:57:07.339Z,5.93
2022-08-18T18:29:21.585Z,5.57
2022-08-18T18:39:57.027Z,6.03
2022-08-18T19:06:50.885Z,6.03
2022-08-18T19:11:59.473Z,5.28
2022-08-18T19:14:41.020Z,5.93
2022-08-18T19:17:48.257Z,6.03
2022-08-18T19:20:28.244Z,5.20
2022-08-18T19:25:50.355Z,5.82
2022-08-18T19:39:01.669Z,6.88
2022-08-18T19:41:42.490Z,6.18
2022-08-18T19:44:29.201Z,6.28
2022-08-18T19:50:14.943Z,5.95
2022-08-18T19:53:15.122Z,6.55
2022-08-18T19:56:19.834Z,6.88
2022-08-18T19:59:35.200Z,6.43
2022-08-18T20:02:39.844Z,6.93
2022-08-18T20:05:31.872Z,6.90
2022-08-18T20:08:33.529Z,6.78
2022-08-18T20:22:00.026Z,7.40
2022-08-18T20:32:35.473Z,7.07
2022-08-18T20:35:25.393Z,7.65
2022-08-18T20:38:12.659Z,7.53
2022-08-18T20:40:55.395Z,7.43
2022-08-18T20:44:01.112Z,7.82
2022-08-18T20:49:21.913Z,6.82
2022-08-18T20:52:18.364Z,7.38
2022-08-18T20:55:26.894Z,7.22
2022-08-18T20:58:08.283Z,8.23
2022-08-18T21:03:15.126Z,8.13
2022-08-18T21:05:47.008Z,7.80
2022-08-18T21:22:14.392Z,7.90
2022-08-18T21:24:49.744Z,7.95
2022-08-18T21:28:10.824Z,8.35
2022-08-18T21:33:21.119Z,9.45
2022-08-18T21:35:50.145Z,11.07
2022-08-18T21:38:26.533Z,9.38
2022-08-18T21:40:59.423Z,9.75
2022-08-18T21:43:52.501Z,9.80
2022-08-18T21:54:51.347Z,10.93
2022-08-18T21:58:11.487Z,10.27
2022-08-18T22:00:42.516Z,11.25
2022-08-18T22:03:29.065Z,10.07
2022-08-18T22:08:49.642Z,12.00
2022-08-18T22:12:02.129Z,10.90
2022-08-18T22:17:30.312Z,9.85
2022-08-18T22:20:41.099Z,11.40
2022-08-18T22:24:04.587Z,11.80
2022-08-18T22:26:41.709Z,11.35
2022-08-18T22:29:34.957Z,11.32
2022-08-18T22:32:04.979Z,12.27
2022-08-18T22:42:33.011Z,13.40
2022-08-18T22:45:08.758Z,12.23
2022-08-18T22:53:00.425Z,13.70
2022-08-18T22:55:27.292Z,13.02
2022-08-18T22:57:56.964Z,14.80
2022-08-18T23:00:31.962Z,14.27
2022-08-18T23:03:21.821Z,14.02
2022-08-18T23:05:54.473Z,13.15
2022-08-18T23:08:28.282Z,13.00
2022-08-18T23:11:15.086Z,13.57
2022-08-18T23:13:42.975Z,14.20
2022-08-18T23:16:12.865Z,14.93
2022-08-18T23:19:02.578Z,14.40
2022-08-18T23:24:32.695Z,15.40
2022-08-18T23:29:39.686Z,16.05
2022-08-18T23:32:07.002Z,17.48
2022-08-18T23:34:47.027Z,17.08
2022-08-18T23:42:36.899Z,16.90
2022-08-18T23:45:11.404Z,16.52
2022-08-18T23:47:41.336Z,16.75
2022-08-18T23:50:11.300Z,17.02
2022-08-18T23:52:39.001Z,16.02
2022-08-18T23:55:10.825Z,16.42
2022-08-18T23:58:10.265Z,16.38
